sensor_id;sensor_type;location;lat;lon;timestamp;P1;durP1;ratioP1;P2;durP2;ratioP2
12597;SDS011;6364;53.590;9.956;2024-01-30T00:01:40;23.60;;;13.75;;
12597;SDS011;6364;53.590;9.956;2024-01-30T00:04:05;21.95;;;13.55;;
12597;SDS011;6364;53.590;9.956;2024-01-30T00:06:31;23.50;;;13.73;;
12597;SDS011;6364;53.590;9.956;2024-01-30T00:08:56;28.42;;;14.32;;
12597;SDS011;6364;53.590;9.956;2024-01-30T00:11:22;22.10;;;13.45;;
12597;SDS011;6364;53.590;9.956;2024-01-30T00:13:47;24.27;;;14.07;;
12597;SDS011;6364;53.590;9.956;2024-01-30T00:16:22;28.08;;;13.93;;
12597;SDS011;6364;53.590;9.956;2024-01-30T00:18:49;21.60;;;13.82;;
12597;SDS011;6364;53.590;9.956;2024-01-30T00:21:15;21.63;;;13.50;;
12597;SDS011;6364;53.590;9.956;2024-01-30T00:23:41;22.48;;;13.57;;
12597;SDS011;6364;53.590;9.956;2024-01-30T00:26:06;23.80;;;14.45;;
12597;SDS011;6364;53.590;9.956;2024-01-30T00:28:31;23.90;;;14.73;;
12597;SDS011;6364;53.590;9.956;2024-01-30T00:30:57;21.20;;;13.57;;
12597;SDS011;6364;53.590;9.956;2024-01-30T00:33:22;21.67;;;13.93;;
12597;SDS011;6364;53.590;9.956;2024-01-30T00:35:47;23.60;;;14.88;;
12597;SDS011;6364;53.590;9.956;2024-01-30T00:38:13;23.42;;;14.80;;
12597;SDS011;6364;53.590;9.956;2024-01-30T00:40:38;25.65;;;14.80;;
12597;SDS011;6364;53.590;9.956;2024-01-30T00:43:03;24.77;;;15.18;;
12597;SDS011;6364;53.590;9.956;2024-01-30T00:45:29;22.08;;;13.73;;
12597;SDS011;6364;53.590;9.956;2024-01-30T00:47:54;25.63;;;14.43;;
12597;SDS011;6364;53.590;9.956;2024-01-30T00:50:19;23.00;;;14.27;;
12597;SDS011;6364;53.590;9.956;2024-01-30T00:52:45;25.80;;;15.18;;
12597;SDS011;6364;53.590;9.956;2024-01-30T00:55:11;27.25;;;14.70;;
12597;SDS011;6364;53.590;9.956;2024-01-30T00:57:36;25.52;;;15.25;;
12597;SDS011;6364;53.590;9.956;2024-01-30T01:00:02;23.60;;;14.95;;
12597;SDS011;6364;53.590;9.956;2024-01-30T01:02:28;19.13;;;13.43;;
12597;SDS011;6364;53.590;9.956;2024-01-30T01:04:53;24.65;;;14.65;;
12597;SDS011;6364;53.590;9.956;2024-01-30T01:07:19;28.98;;;15.75;;
12597;SDS011;6364;53.590;9.956;2024-01-30T01:09:44;20.55;;;13.70;;
12597;SDS011;6364;53.590;9.956;2024-01-30T01:12:09;24.52;;;14.35;;
12597;SDS011;6364;53.590;9.956;2024-01-30T01:14:35;25.38;;;14.40;;
12597;SDS011;6364;53.590;9.956;2024-01-30T01:17:01;20.85;;;13.73;;
12597;SDS011;6364;53.590;9.956;2024-01-30T01:19:26;20.80;;;13.75;;
12597;SDS011;6364;53.590;9.956;2024-01-30T01:21:52;27.67;;;14.50;;
12597;SDS011;6364;53.590;9.956;2024-01-30T01:24:18;21.17;;;13.43;;
12597;SDS011;6364;53.590;9.956;2024-01-30T01:26:43;23.95;;;14.57;;
12597;SDS011;6364;53.590;9.956;2024-01-30T01:29:09;22.40;;;14.60;;
12597;SDS011;6364;53.590;9.956;2024-01-30T01:31:37;26.77;;;15.18;;
12597;SDS011;6364;53.590;9.956;2024-01-30T01:34:12;31.05;;;15.25;;
12597;SDS011;6364;53.590;9.956;2024-01-30T01:36:38;26.90;;;15.13;;
12597;SDS011;6364;53.590;9.956;2024-01-30T01:39:04;23.48;;;15.38;;
12597;SDS011;6364;53.590;9.956;2024-01-30T01:41:32;22.27;;;14.27;;
12597;SDS011;6364;53.590;9.956;2024-01-30T01:43:58;25.17;;;14.90;;
12597;SDS011;6364;53.590;9.956;2024-01-30T01:46:26;23.58;;;15.32;;
12597;SDS011;6364;53.590;9.956;2024-01-30T01:48:52;28.02;;;15.00;;
12597;SDS011;6364;53.590;9.956;2024-01-30T01:51:17;23.83;;;15.20;;
12597;SDS011;6364;53.590;9.956;2024-01-30T01:53:43;26.25;;;15.35;;
12597;SDS011;6364;53.590;9.956;2024-01-30T01:56:08;21.17;;;14.85;;
12597;SDS011;6364;53.590;9.956;2024-01-30T01:58:33;22.45;;;14.25;;
12597;SDS011;6364;53.590;9.956;2024-01-30T02:00:59;24.85;;;14.95;;
12597;SDS011;6364;53.590;9.956;2024-01-30T02:03:24;25.38;;;14.95;;
12597;SDS011;6364;53.590;9.956;2024-01-30T02:05:53;26.13;;;15.45;;
12597;SDS011;6364;53.590;9.956;2024-01-30T02:08:18;25.92;;;15.20;;
12597;SDS011;6364;53.590;9.956;2024-01-30T02:10:44;25.33;;;14.48;;
12597;SDS011;6364;53.590;9.956;2024-01-30T02:13:09;24.48;;;14.43;;
12597;SDS011;6364;53.590;9.956;2024-01-30T02:15:34;24.50;;;14.23;;
12597;SDS011;6364;53.590;9.956;2024-01-30T02:18:00;22.02;;;13.43;;
12597;SDS011;6364;53.590;9.956;2024-01-30T02:20:25;23.95;;;14.10;;
12597;SDS011;6364;53.590;9.956;2024-01-30T02:22:54;18.85;;;13.57;;
12597;SDS011;6364;53.590;9.956;2024-01-30T02:25:19;22.20;;;13.93;;
12597;SDS011;6364;53.590;9.956;2024-01-30T02:27:45;25.48;;;14.13;;
12597;SDS011;6364;53.590;9.956;2024-01-30T02:30:10;21.10;;;13.48;;
12597;SDS011;6364;53.590;9.956;2024-01-30T02:32:36;23.55;;;14.27;;
12597;SDS011;6364;53.590;9.956;2024-01-30T02:35:01;25.90;;;13.20;;
12597;SDS011;6364;53.590;9.956;2024-01-30T02:37:27;28.55;;;13.35;;
12597;SDS011;6364;53.590;9.956;2024-01-30T02:39:52;20.65;;;13.15;;
12597;SDS011;6364;53.590;9.956;2024-01-30T02:42:18;21.10;;;13.20;;
12597;SDS011;6364;53.590;9.956;2024-01-30T02:44:43;20.25;;;13.20;;
12597;SDS011;6364;53.590;9.956;2024-01-30T02:47:08;23.13;;;13.13;;
12597;SDS011;6364;53.590;9.956;2024-01-30T02:49:34;24.58;;;13.02;;
12597;SDS011;6364;53.590;9.956;2024-01-30T02:51:59;21.65;;;13.20;;
12597;SDS011;6364;53.590;9.956;2024-01-30T02:54:24;19.15;;;13.45;;
12597;SDS011;6364;53.590;9.956;2024-01-30T02:56:50;23.90;;;12.63;;
12597;SDS011;6364;53.590;9.956;2024-01-30T02:59:16;23.23;;;12.02;;
12597;SDS011;6364;53.590;9.956;2024-01-30T03:01:44;17.88;;;11.95;;
12597;SDS011;6364;53.590;9.956;2024-01-30T03:04:10;18.73;;;11.70;;
12597;SDS011;6364;53.590;9.956;2024-01-30T03:06:36;19.88;;;12.00;;
12597;SDS011;6364;53.590;9.956;2024-01-30T03:09:01;18.02;;;11.38;;
12597;SDS011;6364;53.590;9.956;2024-01-30T03:11:27;19.00;;;11.45;;
12597;SDS011;6364;53.590;9.956;2024-01-30T03:13:52;20.20;;;11.63;;
12597;SDS011;6364;53.590;9.956;2024-01-30T03:16:18;19.88;;;11.57;;
12597;SDS011;6364;53.590;9.956;2024-01-30T03:18:43;20.70;;;11.57;;
12597;SDS011;6364;53.590;9.956;2024-01-30T03:21:09;20.35;;;11.15;;
12597;SDS011;6364;53.590;9.956;2024-01-30T03:23:34;17.10;;;10.73;;
12597;SDS011;6364;53.590;9.956;2024-01-30T03:25:59;17.67;;;11.45;;
12597;SDS011;6364;53.590;9.956;2024-01-30T03:28:25;17.50;;;10.95;;
12597;SDS011;6364;53.590;9.956;2024-01-30T03:30:50;18.60;;;11.23;;
12597;SDS011;6364;53.590;9.956;2024-01-30T03:33:15;19.55;;;11.75;;
12597;SDS011;6364;53.590;9.956;2024-01-30T03:35:41;18.42;;;11.10;;
12597;SDS011;6364;53.590;9.956;2024-01-30T03:38:06;18.35;;;11.00;;
12597;SDS011;6364;53.590;9.956;2024-01-30T03:40:32;20.25;;;10.98;;
12597;SDS011;6364;53.590;9.956;2024-01-30T03:42:57;14.85;;;10.50;;
12597;SDS011;6364;53.590;9.956;2024-01-30T03:45:22;24.95;;;11.23;;
12597;SDS011;6364;53.590;9.956;2024-01-30T03:47:48;20.05;;;11.55;;
12597;SDS011;6364;53.590;9.956;2024-01-30T03:50:13;20.30;;;11.65;;
12597;SDS011;6364;53.590;9.956;2024-01-30T03:52:39;19.15;;;11.35;;
12597;SDS011;6364;53.590;9.956;2024-01-30T03:55:04;19.83;;;11.68;;
12597;SDS011;6364;53.590;9.956;2024-01-30T03:57:30;19.42;;;11.65;;
12597;SDS011;6364;53.590;9.956;2024-01-30T03:59:55;15.63;;;11.43;;
12597;SDS011;6364;53.590;9.956;2024-01-30T04:02:21;19.77;;;11.95;;
12597;SDS011;6364;53.590;9.956;2024-01-30T04:04:46;18.35;;;11.73;;
12597;SDS011;6364;53.590;9.956;2024-01-30T04:07:11;17.13;;;11.55;;
12597;SDS011;6364;53.590;9.956;2024-01-30T04:09:38;18.10;;;11.23;;
12597;SDS011;6364;53.590;9.956;2024-01-30T04:12:03;17.05;;;11.63;;
12597;SDS011;6364;53.590;9.956;2024-01-30T04:14:29;17.63;;;11.02;;
12597;SDS011;6364;53.590;9.956;2024-01-30T04:16:54;18.05;;;11.57;;
12597;SDS011;6364;53.590;9.956;2024-01-30T04:19:19;21.85;;;13.02;;
12597;SDS011;6364;53.590;9.956;2024-01-30T04:21:45;21.75;;;12.43;;
12597;SDS011;6364;53.590;9.956;2024-01-30T04:24:10;19.60;;;12.23;;
12597;SDS011;6364;53.590;9.956;2024-01-30T04:26:35;18.63;;;12.15;;
12597;SDS011;6364;53.590;9.956;2024-01-30T04:29:01;19.33;;;12.38;;
12597;SDS011;6364;53.590;9.956;2024-01-30T04:31:27;23.27;;;12.75;;
12597;SDS011;6364;53.590;9.956;2024-01-30T04:33:53;20.90;;;12.00;;
12597;SDS011;6364;53.590;9.956;2024-01-30T04:36:18;19.63;;;12.00;;
12597;SDS011;6364;53.590;9.956;2024-01-30T04:38:43;19.45;;;12.63;;
12597;SDS011;6364;53.590;9.956;2024-01-30T04:41:10;20.02;;;12.40;;
12597;SDS011;6364;53.590;9.956;2024-01-30T04:43:35;20.33;;;13.05;;
12597;SDS011;6364;53.590;9.956;2024-01-30T04:46:01;22.98;;;13.43;;
12597;SDS011;6364;53.590;9.956;2024-01-30T04:48:26;28.27;;;13.23;;
12597;SDS011;6364;53.590;9.956;2024-01-30T04:50:52;23.38;;;14.20;;
12597;SDS011;6364;53.590;9.956;2024-01-30T04:53:17;22.52;;;14.48;;
12597;SDS011;6364;53.590;9.956;2024-01-30T04:55:43;29.17;;;14.40;;
12597;SDS011;6364;53.590;9.956;2024-01-30T04:58:08;21.15;;;13.90;;
12597;SDS011;6364;53.590;9.956;2024-01-30T05:00:33;24.52;;;14.48;;
12597;SDS011;6364;53.590;9.956;2024-01-30T05:02:59;20.25;;;14.30;;
12597;SDS011;6364;53.590;9.956;2024-01-30T05:05:24;23.02;;;14.77;;
12597;SDS011;6364;53.590;9.956;2024-01-30T05:07:50;25.45;;;14.55;;
12597;SDS011;6364;53.590;9.956;2024-01-30T05:10:15;24.15;;;14.00;;
12597;SDS011;6364;53.590;9.956;2024-01-30T05:12:40;24.27;;;14.98;;
12597;SDS011;6364;53.590;9.956;2024-01-30T05:15:06;21.83;;;14.00;;
12597;SDS011;6364;53.590;9.956;2024-01-30T05:17:31;20.05;;;13.43;;
12597;SDS011;6364;53.590;9.956;2024-01-30T05:19:57;23.75;;;14.55;;
12597;SDS011;6364;53.590;9.956;2024-01-30T05:22:22;20.20;;;14.43;;
12597;SDS011;6364;53.590;9.956;2024-01-30T05:24:48;24.30;;;14.38;;
12597;SDS011;6364;53.590;9.956;2024-01-30T05:27:13;21.63;;;14.23;;
12597;SDS011;6364;53.590;9.956;2024-01-30T05:29:39;27.35;;;14.38;;
12597;SDS011;6364;53.590;9.956;2024-01-30T05:32:05;25.25;;;14.30;;
12597;SDS011;6364;53.590;9.956;2024-01-30T05:34:31;22.27;;;15.38;;
12597;SDS011;6364;53.590;9.956;2024-01-30T05:36:56;29.45;;;14.73;;
12597;SDS011;6364;53.590;9.956;2024-01-30T05:39:22;25.25;;;15.07;;
12597;SDS011;6364;53.590;9.956;2024-01-30T05:41:47;24.50;;;14.90;;
12597;SDS011;6364;53.590;9.956;2024-01-30T05:44:12;27.63;;;15.13;;
12597;SDS011;6364;53.590;9.956;2024-01-30T05:46:38;23.58;;;15.02;;
12597;SDS011;6364;53.590;9.956;2024-01-30T05:49:03;25.67;;;15.30;;
12597;SDS011;6364;53.590;9.956;2024-01-30T05:51:28;22.35;;;14.32;;
12597;SDS011;6364;53.590;9.956;2024-01-30T05:53:54;29.58;;;16.55;;
12597;SDS011;6364;53.590;9.956;2024-01-30T05:56:19;29.63;;;15.65;;
12597;SDS011;6364;53.590;9.956;2024-01-30T05:58:45;25.42;;;16.17;;
12597;SDS011;6364;53.590;9.956;2024-01-30T06:01:10;23.90;;;15.35;;
12597;SDS011;6364;53.590;9.956;2024-01-30T06:03:36;29.13;;;15.80;;
12597;SDS011;6364;53.590;9.956;2024-01-30T06:06:01;28.73;;;15.63;;
12597;SDS011;6364;53.590;9.956;2024-01-30T06:08:26;29.00;;;15.00;;
12597;SDS011;6364;53.590;9.956;2024-01-30T06:10:52;23.52;;;15.85;;
12597;SDS011;6364;53.590;9.956;2024-01-30T06:13:17;21.05;;;14.65;;
12597;SDS011;6364;53.590;9.956;2024-01-30T06:15:43;24.88;;;15.07;;
12597;SDS011;6364;53.590;9.956;2024-01-30T06:18:08;27.08;;;15.25;;
12597;SDS011;6364;53.590;9.956;2024-01-30T06:20:33;21.80;;;15.32;;
12597;SDS011;6364;53.590;9.956;2024-01-30T06:22:59;23.42;;;14.90;;
12597;SDS011;6364;53.590;9.956;2024-01-30T06:25:24;23.27;;;15.23;;
12597;SDS011;6364;53.590;9.956;2024-01-30T06:27:50;25.65;;;15.93;;
12597;SDS011;6364;53.590;9.956;2024-01-30T06:30:15;27.42;;;16.00;;
12597;SDS011;6364;53.590;9.956;2024-01-30T06:32:41;24.27;;;15.43;;
12597;SDS011;6364;53.590;9.956;2024-01-30T06:35:06;22.85;;;15.38;;
12597;SDS011;6364;53.590;9.956;2024-01-30T06:37:32;24.90;;;15.00;;
12597;SDS011;6364;53.590;9.956;2024-01-30T06:39:57;26.17;;;15.35;;
12597;SDS011;6364;53.590;9.956;2024-01-30T06:42:23;29.30;;;15.55;;
12597;SDS011;6364;53.590;9.956;2024-01-30T06:44:48;24.60;;;15.48;;
12597;SDS011;6364;53.590;9.956;2024-01-30T06:47:13;23.15;;;15.55;;
12597;SDS011;6364;53.590;9.956;2024-01-30T06:49:39;21.33;;;14.60;;
12597;SDS011;6364;53.590;9.956;2024-01-30T06:52:06;25.05;;;15.50;;
12597;SDS011;6364;53.590;9.956;2024-01-30T06:54:32;23.50;;;16.00;;
12597;SDS011;6364;53.590;9.956;2024-01-30T06:56:58;25.98;;;15.02;;
12597;SDS011;6364;53.590;9.956;2024-01-30T06:59:24;29.10;;;16.70;;
12597;SDS011;6364;53.590;9.956;2024-01-30T07:01:49;26.10;;;16.35;;
12597;SDS011;6364;53.590;9.956;2024-01-30T07:04:15;29.67;;;15.40;;
12597;SDS011;6364;53.590;9.956;2024-01-30T07:06:41;26.60;;;15.20;;
12597;SDS011;6364;53.590;9.956;2024-01-30T07:09:06;24.60;;;15.30;;
12597;SDS011;6364;53.590;9.956;2024-01-30T07:11:31;22.83;;;15.73;;
12597;SDS011;6364;53.590;9.956;2024-01-30T07:13:57;28.45;;;16.40;;
12597;SDS011;6364;53.590;9.956;2024-01-30T07:16:22;22.75;;;16.20;;
12597;SDS011;6364;53.590;9.956;2024-01-30T07:18:48;25.88;;;15.38;;
12597;SDS011;6364;53.590;9.956;2024-01-30T07:21:14;26.02;;;15.98;;
12597;SDS011;6364;53.590;9.956;2024-01-30T07:23:40;23.38;;;16.05;;
12597;SDS011;6364;53.590;9.956;2024-01-30T07:26:06;22.80;;;15.52;;
12597;SDS011;6364;53.590;9.956;2024-01-30T07:28:31;22.98;;;16.27;;
12597;SDS011;6364;53.590;9.956;2024-01-30T07:30:57;28.67;;;16.65;;
12597;SDS011;6364;53.590;9.956;2024-01-30T07:33:23;31.75;;;16.65;;
12597;SDS011;6364;53.590;9.956;2024-01-30T07:35:48;27.13;;;15.73;;
12597;SDS011;6364;53.590;9.956;2024-01-30T07:38:14;24.73;;;16.27;;
12597;SDS011;6364;53.590;9.956;2024-01-30T07:40:39;32.60;;;17.42;;
12597;SDS011;6364;53.590;9.956;2024-01-30T07:43:04;28.52;;;16.40;;
12597;SDS011;6364;53.590;9.956;2024-01-30T07:45:30;26.70;;;17.42;;
12597;SDS011;6364;53.590;9.956;2024-01-30T07:47:58;26.55;;;16.38;;
12597;SDS011;6364;53.590;9.956;2024-01-30T07:50:24;26.45;;;16.65;;
12597;SDS011;6364;53.590;9.956;2024-01-30T07:52:50;24.38;;;16.88;;
12597;SDS011;6364;53.590;9.956;2024-01-30T07:55:19;25.35;;;16.55;;
12597;SDS011;6364;53.590;9.956;2024-01-30T07:57:53;22.80;;;15.77;;
12597;SDS011;6364;53.590;9.956;2024-01-30T08:00:20;27.77;;;17.45;;
12597;SDS011;6364;53.590;9.956;2024-01-30T08:02:46;23.60;;;16.40;;
12597;SDS011;6364;53.590;9.956;2024-01-30T08:05:11;23.95;;;16.38;;
12597;SDS011;6364;53.590;9.956;2024-01-30T08:07:37;23.40;;;15.40;;
12597;SDS011;6364;53.590;9.956;2024-01-30T08:10:02;24.77;;;16.13;;
12597;SDS011;6364;53.590;9.956;2024-01-30T08:12:28;33.80;;;16.17;;
12597;SDS011;6364;53.590;9.956;2024-01-30T08:14:54;27.08;;;15.70;;
12597;SDS011;6364;53.590;9.956;2024-01-30T08:17:19;27.65;;;17.02;;
12597;SDS011;6364;53.590;9.956;2024-01-30T08:19:44;26.20;;;15.55;;
12597;SDS011;6364;53.590;9.956;2024-01-30T08:22:11;32.83;;;15.38;;
12597;SDS011;6364;53.590;9.956;2024-01-30T08:24:37;26.70;;;15.48;;
12597;SDS011;6364;53.590;9.956;2024-01-30T08:27:02;26.42;;;16.30;;
12597;SDS011;6364;53.590;9.956;2024-01-30T08:29:30;24.60;;;15.68;;
12597;SDS011;6364;53.590;9.956;2024-01-30T08:31:55;24.63;;;15.60;;
12597;SDS011;6364;53.590;9.956;2024-01-30T08:34:20;22.40;;;15.60;;
12597;SDS011;6364;53.590;9.956;2024-01-30T08:36:46;25.08;;;15.45;;
12597;SDS011;6364;53.590;9.956;2024-01-30T08:39:11;25.17;;;15.88;;
12597;SDS011;6364;53.590;9.956;2024-01-30T08:41:37;24.45;;;15.25;;
12597;SDS011;6364;53.590;9.956;2024-01-30T08:44:02;30.77;;;15.90;;
12597;SDS011;6364;53.590;9.956;2024-01-30T08:46:29;25.27;;;15.63;;
12597;SDS011;6364;53.590;9.956;2024-01-30T08:48:55;24.95;;;16.10;;
12597;SDS011;6364;53.590;9.956;2024-01-30T08:51:21;25.45;;;15.25;;
12597;SDS011;6364;53.590;9.956;2024-01-30T08:53:46;24.83;;;15.75;;
12597;SDS011;6364;53.590;9.956;2024-01-30T08:56:12;24.35;;;15.88;;
12597;SDS011;6364;53.590;9.956;2024-01-30T08:58:38;23.00;;;15.23;;
12597;SDS011;6364;53.590;9.956;2024-01-30T09:01:03;25.88;;;15.20;;
12597;SDS011;6364;53.590;9.956;2024-01-30T09:03:30;25.10;;;15.57;;
12597;SDS011;6364;53.590;9.956;2024-01-30T09:05:55;24.75;;;15.25;;
12597;SDS011;6364;53.590;9.956;2024-01-30T09:08:21;25.38;;;15.02;;
12597;SDS011;6364;53.590;9.956;2024-01-30T09:10:46;24.85;;;15.18;;
12597;SDS011;6364;53.590;9.956;2024-01-30T09:13:11;25.58;;;15.45;;
12597;SDS011;6364;53.590;9.956;2024-01-30T09:15:37;25.52;;;15.00;;
12597;SDS011;6364;53.590;9.956;2024-01-30T09:18:02;24.77;;;15.75;;
12597;SDS011;6364;53.590;9.956;2024-01-30T09:20:28;22.35;;;15.32;;
12597;SDS011;6364;53.590;9.956;2024-01-30T09:22:53;25.13;;;15.57;;
12597;SDS011;6364;53.590;9.956;2024-01-30T09:25:18;25.40;;;14.88;;
12597;SDS011;6364;53.590;9.956;2024-01-30T09:27:44;24.35;;;15.02;;
12597;SDS011;6364;53.590;9.956;2024-01-30T09:30:09;29.77;;;15.65;;
12597;SDS011;6364;53.590;9.956;2024-01-30T09:32:35;22.55;;;14.40;;
12597;SDS011;6364;53.590;9.956;2024-01-30T09:35:00;22.10;;;14.30;;
12597;SDS011;6364;53.590;9.956;2024-01-30T09:37:26;26.40;;;15.40;;
12597;SDS011;6364;53.590;9.956;2024-01-30T09:39:51;25.65;;;15.35;;
12597;SDS011;6364;53.590;9.956;2024-01-30T09:44:54;23.33;;;14.45;;
12597;SDS011;6364;53.590;9.956;2024-01-30T09:47:20;22.10;;;15.43;;
12597;SDS011;6364;53.590;9.956;2024-01-30T09:49:45;24.50;;;16.02;;
12597;SDS011;6364;53.590;9.956;2024-01-30T09:52:11;25.27;;;15.60;;
12597;SDS011;6364;53.590;9.956;2024-01-30T09:54:38;22.67;;;15.90;;
12597;SDS011;6364;53.590;9.956;2024-01-30T09:57:04;25.23;;;16.98;;
12597;SDS011;6364;53.590;9.956;2024-01-30T09:59:30;26.75;;;16.60;;
12597;SDS011;6364;53.590;9.956;2024-01-30T10:01:55;23.48;;;15.85;;
12597;SDS011;6364;53.590;9.956;2024-01-30T10:04:21;22.65;;;15.63;;
12597;SDS011;6364;53.590;9.956;2024-01-30T10:06:47;26.67;;;15.55;;
12597;SDS011;6364;53.590;9.956;2024-01-30T10:09:12;25.92;;;15.57;;
12597;SDS011;6364;53.590;9.956;2024-01-30T10:11:38;23.17;;;14.93;;
12597;SDS011;6364;53.590;9.956;2024-01-30T10:14:04;24.70;;;14.82;;
12597;SDS011;6364;53.590;9.956;2024-01-30T10:16:29;25.63;;;15.82;;
12597;SDS011;6364;53.590;9.956;2024-01-30T10:18:55;25.85;;;15.20;;
12597;SDS011;6364;53.590;9.956;2024-01-30T10:21:20;24.77;;;15.32;;
12597;SDS011;6364;53.590;9.956;2024-01-30T10:23:46;20.08;;;14.05;;
12597;SDS011;6364;53.590;9.956;2024-01-30T10:26:11;23.10;;;15.27;;
12597;SDS011;6364;53.590;9.956;2024-01-30T10:28:37;27.05;;;15.65;;
12597;SDS011;6364;53.590;9.956;2024-01-30T10:31:03;24.58;;;15.45;;
12597;SDS011;6364;53.590;9.956;2024-01-30T10:33:29;21.25;;;14.07;;
12597;SDS011;6364;53.590;9.956;2024-01-30T10:36:00;23.30;;;14.60;;
12597;SDS011;6364;53.590;9.956;2024-01-30T10:38:30;33.25;;;15.27;;
12597;SDS011;6364;53.590;9.956;2024-01-30T10:40:57;22.75;;;13.80;;
12597;SDS011;6364;53.590;9.956;2024-01-30T10:43:30;23.50;;;14.95;;
12597;SDS011;6364;53.590;9.956;2024-01-30T10:45:59;20.45;;;14.43;;
12597;SDS011;6364;53.590;9.956;2024-01-30T10:48:43;25.38;;;14.38;;
12597;SDS011;6364;53.590;9.956;2024-01-30T10:51:11;20.23;;;14.18;;
12597;SDS011;6364;53.590;9.956;2024-01-30T10:53:38;30.02;;;15.45;;
12597;SDS011;6364;53.590;9.956;2024-01-30T10:56:04;24.20;;;14.38;;
12597;SDS011;6364;53.590;9.956;2024-01-30T10:58:30;22.00;;;14.68;;
12597;SDS011;6364;53.590;9.956;2024-01-30T11:00:56;24.33;;;14.95;;
12597;SDS011;6364;53.590;9.956;2024-01-30T11:03:22;30.33;;;17.30;;
12597;SDS011;6364;53.590;9.956;2024-01-30T11:05:51;21.88;;;14.20;;
12597;SDS011;6364;53.590;9.956;2024-01-30T11:08:26;24.75;;;14.50;;
12597;SDS011;6364;53.590;9.956;2024-01-30T11:10:56;25.45;;;14.02;;
12597;SDS011;6364;53.590;9.956;2024-01-30T11:13:26;22.17;;;14.73;;
12597;SDS011;6364;53.590;9.956;2024-01-30T11:15:54;20.25;;;14.90;;
12597;SDS011;6364;53.590;9.956;2024-01-30T11:18:28;24.83;;;14.68;;
12597;SDS011;6364;53.590;9.956;2024-01-30T11:20:58;20.98;;;14.07;;
12597;SDS011;6364;53.590;9.956;2024-01-30T11:23:26;27.70;;;15.82;;
12597;SDS011;6364;53.590;9.956;2024-01-30T11:25:52;30.30;;;15.73;;
12597;SDS011;6364;53.590;9.956;2024-01-30T11:28:18;24.50;;;15.93;;
12597;SDS011;6364;53.590;9.956;2024-01-30T11:30:43;26.60;;;15.20;;
12597;SDS011;6364;53.590;9.956;2024-01-30T11:35:36;28.25;;;16.42;;
12597;SDS011;6364;53.590;9.956;2024-01-30T11:38:06;25.58;;;15.35;;
12597;SDS011;6364;53.590;9.956;2024-01-30T11:40:32;24.92;;;16.27;;
12597;SDS011;6364;53.590;9.956;2024-01-30T11:42:59;24.77;;;16.08;;
12597;SDS011;6364;53.590;9.956;2024-01-30T11:45:25;26.13;;;15.88;;
12597;SDS011;6364;53.590;9.956;2024-01-30T11:47:51;27.35;;;15.98;;
12597;SDS011;6364;53.590;9.956;2024-01-30T11:50:17;26.20;;;15.40;;
12597;SDS011;6364;53.590;9.956;2024-01-30T11:52:42;26.98;;;14.38;;
12597;SDS011;6364;53.590;9.956;2024-01-30T11:55:08;22.85;;;15.07;;
12597;SDS011;6364;53.590;9.956;2024-01-30T11:57:34;25.35;;;14.68;;
12597;SDS011;6364;53.590;9.956;2024-01-30T12:00:03;22.65;;;15.25;;
12597;SDS011;6364;53.590;9.956;2024-01-30T12:02:37;24.50;;;14.40;;
12597;SDS011;6364;53.590;9.956;2024-01-30T12:05:06;27.30;;;15.45;;
12597;SDS011;6364;53.590;9.956;2024-01-30T12:07:32;21.58;;;14.82;;
12597;SDS011;6364;53.590;9.956;2024-01-30T12:09:58;23.98;;;14.00;;
12597;SDS011;6364;53.590;9.956;2024-01-30T12:12:27;21.25;;;13.38;;
12597;SDS011;6364;53.590;9.956;2024-01-30T12:14:53;17.63;;;13.02;;
12597;SDS011;6364;53.590;9.956;2024-01-30T12:17:37;20.42;;;12.48;;
12597;SDS011;6364;53.590;9.956;2024-01-30T12:22:36;18.58;;;12.20;;
12597;SDS011;6364;53.590;9.956;2024-01-30T12:25:07;24.60;;;13.00;;
12597;SDS011;6364;53.590;9.956;2024-01-30T12:27:33;24.05;;;14.20;;
12597;SDS011;6364;53.590;9.956;2024-01-30T12:29:59;22.30;;;12.02;;
12597;SDS011;6364;53.590;9.956;2024-01-30T12:32:25;19.75;;;11.32;;
12597;SDS011;6364;53.590;9.956;2024-01-30T12:34:50;21.75;;;12.57;;
12597;SDS011;6364;53.590;9.956;2024-01-30T12:37:16;17.70;;;12.02;;
12597;SDS011;6364;53.590;9.956;2024-01-30T12:39:47;24.40;;;13.02;;
12597;SDS011;6364;53.590;9.956;2024-01-30T12:42:13;20.48;;;12.48;;
12597;SDS011;6364;53.590;9.956;2024-01-30T12:44:38;24.90;;;12.48;;
12597;SDS011;6364;53.590;9.956;2024-01-30T12:47:04;19.88;;;12.25;;
12597;SDS011;6364;53.590;9.956;2024-01-30T12:49:29;20.40;;;12.73;;
12597;SDS011;6364;53.590;9.956;2024-01-30T12:51:55;22.17;;;12.32;;
12597;SDS011;6364;53.590;9.956;2024-01-30T12:54:22;15.77;;;12.43;;
12597;SDS011;6364;53.590;9.956;2024-01-30T12:56:48;24.85;;;13.13;;
12597;SDS011;6364;53.590;9.956;2024-01-30T12:59:13;24.15;;;12.82;;
12597;SDS011;6364;53.590;9.956;2024-01-30T13:01:39;19.88;;;12.57;;
12597;SDS011;6364;53.590;9.956;2024-01-30T13:04:04;22.08;;;12.63;;
12597;SDS011;6364;53.590;9.956;2024-01-30T13:06:29;18.55;;;12.20;;
12597;SDS011;6364;53.590;9.956;2024-01-30T13:08:55;19.58;;;13.32;;
12597;SDS011;6364;53.590;9.956;2024-01-30T13:11:20;23.92;;;12.60;;
12597;SDS011;6364;53.590;9.956;2024-01-30T13:13:45;19.90;;;12.40;;
12597;SDS011;6364;53.590;9.956;2024-01-30T13:16:11;18.30;;;12.65;;
12597;SDS011;6364;53.590;9.956;2024-01-30T13:18:36;19.63;;;12.93;;
12597;SDS011;6364;53.590;9.956;2024-01-30T13:21:02;20.98;;;12.85;;
12597;SDS011;6364;53.590;9.956;2024-01-30T13:23:28;22.33;;;12.90;;
12597;SDS011;6364;53.590;9.956;2024-01-30T13:25:53;22.35;;;12.57;;
12597;SDS011;6364;53.590;9.956;2024-01-30T13:28:22;18.70;;;12.43;;
12597;SDS011;6364;53.590;9.956;2024-01-30T13:30:48;22.88;;;13.15;;
12597;SDS011;6364;53.590;9.956;2024-01-30T13:33:13;21.80;;;12.93;;
12597;SDS011;6364;53.590;9.956;2024-01-30T13:35:38;20.73;;;12.43;;
12597;SDS011;6364;53.590;9.956;2024-01-30T13:38:04;21.02;;;12.32;;
12597;SDS011;6364;53.590;9.956;2024-01-30T13:40:29;19.27;;;12.18;;
12597;SDS011;6364;53.590;9.956;2024-01-30T13:42:54;23.58;;;13.18;;
12597;SDS011;6364;53.590;9.956;2024-01-30T13:45:20;23.23;;;12.90;;
12597;SDS011;6364;53.590;9.956;2024-01-30T13:47:45;23.50;;;13.40;;
12597;SDS011;6364;53.590;9.956;2024-01-30T13:50:11;22.40;;;13.05;;
12597;SDS011;6364;53.590;9.956;2024-01-30T13:52:40;20.42;;;13.25;;
12597;SDS011;6364;53.590;9.956;2024-01-30T13:55:06;22.33;;;13.10;;
12597;SDS011;6364;53.590;9.956;2024-01-30T13:57:31;20.92;;;13.35;;
12597;SDS011;6364;53.590;9.956;2024-01-30T14:00:00;24.10;;;13.88;;
12597;SDS011;6364;53.590;9.956;2024-01-30T14:02:25;21.02;;;13.32;;
12597;SDS011;6364;53.590;9.956;2024-01-30T14:04:50;22.08;;;12.77;;
12597;SDS011;6364;53.590;9.956;2024-01-30T14:07:16;17.88;;;13.02;;
12597;SDS011;6364;53.590;9.956;2024-01-30T14:09:43;23.23;;;13.13;;
12597;SDS011;6364;53.590;9.956;2024-01-30T14:12:09;22.92;;;12.98;;
12597;SDS011;6364;53.590;9.956;2024-01-30T14:14:34;20.20;;;13.05;;
12597;SDS011;6364;53.590;9.956;2024-01-30T14:17:00;21.75;;;12.88;;
12597;SDS011;6364;53.590;9.956;2024-01-30T14:19:25;19.10;;;13.23;;
12597;SDS011;6364;53.590;9.956;2024-01-30T14:21:50;23.02;;;13.10;;
12597;SDS011;6364;53.590;9.956;2024-01-30T14:24:16;19.33;;;13.30;;
12597;SDS011;6364;53.590;9.956;2024-01-30T14:26:41;19.95;;;12.50;;
12597;SDS011;6364;53.590;9.956;2024-01-30T14:29:07;21.20;;;13.15;;
12597;SDS011;6364;53.590;9.956;2024-01-30T14:31:33;18.40;;;12.90;;
12597;SDS011;6364;53.590;9.956;2024-01-30T14:33:58;23.95;;;12.50;;